Time;durP1;ratioP1;P1;durP2;ratioP2;P2;SDS_P1;SDS_P2;PMS_P1;PMS_P2;Temp;Humidity;BMP_temperature;BMP_pressure;BME280_temperature;BME280_humidity;BME280_pressure;Samples;Min_cycle;Max_cycle;Signal;HPM_P1;HPM_P2
2022/09/16 00:01:31;;;;;;;0.70;0.70;;;;;;;;;;5138222;28;20210;-65
2022/09/16 00:03:58;;;;;;;1.08;0.70;;;;;;;;;;5137696;28;20263;-65
2022/09/16 00:06:27;;;;;;;0.65;0.65;;;;;;;;;;5138111;28;20241;-66
2022/09/16 00:08:55;;;;;;;0.93;0.70;;;;;;;;;;5137724;28;20653;-66
2022/09/16 00:11:23;;;;;;;0.70;0.70;;;;;;;;;;5138493;28;20296;-66
2022/09/16 00:13:51;;;;;;;0.75;0.75;;;;;;;;;;5138014;28;20273;-66
2022/09/16 00:16:19;;;;;;;0.70;0.70;;;;;;;;;;5138177;28;20263;-66
2022/09/16 00:18:48;;;;;;;0.82;0.82;;;;;;;;;;5138134;28;20285;-65
2022/09/16 00:21:16;;;;;;;0.80;0.70;;;;;;;;;;5137031;28;20595;-65
2022/09/16 00:23:44;;;;;;;0.90;0.65;;;;;;;;;;5137840;28;20210;-66
2022/09/16 00:26:11;;;;;;;0.80;0.80;;;;;;;;;;5137823;28;20300;-66
2022/09/16 00:28:38;;;;;;;0.75;0.75;;;;;;;;;;5138052;28;20231;-65
2022/09/16 00:31:06;;;;;;;0.70;0.70;;;;;;;;;;5137558;28;20289;-65
2022/09/16 00:33:33;;;;;;;0.82;0.82;;;;;;;;;;5137309;28;20203;-65
2022/09/16 00:36:10;;;;;;;0.80;0.80;;;;;;;;;;5138066;27;20293;-65
2022/09/16 00:38:38;;;;;;;0.50;0.50;;;;;;;;;;5141084;27;20300;-65
2022/09/16 00:41:06;;;;;;;0.70;0.70;;;;;;;;;;5141416;27;20748;-65
2022/09/16 00:43:47;;;;;;;1.40;0.70;;;;;;;;;;5141199;27;20267;-65
2022/09/16 00:46:15;;;;;;;0.80;0.70;;;;;;;;;;5140850;27;20202;-65
2022/09/16 00:48:43;;;;;;;0.70;0.70;;;;;;;;;;5140672;27;20262;-65
2022/09/16 00:51:12;;;;;;;0.85;0.85;;;;;;;;;;5140926;27;20387;-65
2022/09/16 00:53:41;;;;;;;0.63;0.63;;;;;;;;;;5141057;27;20237;-65
2022/09/16 00:56:10;;;;;;;0.68;0.68;;;;;;;;;;5140904;27;20496;-65
2022/09/16 00:58:41;;;;;;;0.80;0.80;;;;;;;;;;5139622;27;20525;-65
2022/09/16 01:01:08;;;;;;;0.90;0.70;;;;;;;;;;5140120;27;20216;-65
2022/09/16 01:03:39;;;;;;;0.80;0.80;;;;;;;;;;5140409;27;20275;-65
2022/09/16 01:06:07;;;;;;;0.80;0.80;;;;;;;;;;5140339;27;20234;-66
2022/09/16 01:08:36;;;;;;;0.80;0.80;;;;;;;;;;5140384;27;20202;-66
2022/09/16 01:11:03;;;;;;;0.65;0.65;;;;;;;;;;5139839;27;20292;-66
2022/09/16 01:13:31;;;;;;;0.90;0.90;;;;;;;;;;5140190;27;20297;-66
2022/09/16 01:16:00;;;;;;;0.73;0.70;;;;;;;;;;5139954;27;20308;-66
2022/09/16 01:18:32;;;;;;;0.60;0.60;;;;;;;;;;5139688;27;20245;-65
2022/09/16 01:21:13;;;;;;;0.70;0.70;;;;;;;;;;5140359;27;20217;-65
2022/09/16 01:23:59;;;;;;;0.77;0.70;;;;;;;;;;5140254;27;20629;-65
2022/09/16 01:26:43;;;;;;;0.90;0.90;;;;;;;;;;5079826;27;20280;-65
2022/09/16 01:29:27;;;;;;;0.70;0.70;;;;;;;;;;5108901;27;20222;-65
2022/09/16 01:32:01;;;;;;;1.02;0.93;;;;;;;;;;5140596;27;20202;-65
2022/09/16 01:34:36;;;;;;;0.88;0.88;;;;;;;;;;5139994;27;20221;-65
2022/09/16 01:37:07;;;;;;;0.90;0.90;;;;;;;;;;5139771;27;20297;-65
2022/09/16 01:39:38;;;;;;;0.68;0.65;;;;;;;;;;5140554;27;20207;-65
2022/09/16 01:42:14;;;;;;;0.70;0.70;;;;;;;;;;5139554;27;20594;-65
2022/09/16 01:44:45;;;;;;;0.90;0.90;;;;;;;;;;5140144;27;20198;-65
2022/09/16 01:47:20;;;;;;;0.80;0.80;;;;;;;;;;5138936;27;20301;-65
2022/09/16 01:49:56;;;;;;;0.77;0.77;;;;;;;;;;5139847;27;20202;-65
2022/09/16 01:52:25;;;;;;;0.73;0.73;;;;;;;;;;5139229;27;20554;-65
2022/09/16 01:54:56;;;;;;;0.63;0.60;;;;;;;;;;5139479;27;20241;-65
2022/09/16 01:57:28;;;;;;;1.65;0.95;;;;;;;;;;5139024;27;20249;-65
2022/09/16 01:59:58;;;;;;;0.65;0.65;;;;;;;;;;5139777;27;20532;-65
2022/09/16 02:02:29;;;;;;;0.70;0.70;;;;;;;;;;5138877;27;20241;-65
2022/09/16 02:04:58;;;;;;;0.80;0.80;;;;;;;;;;5139451;27;20202;-65
2022/09/16 02:07:27;;;;;;;0.70;0.70;;;;;;;;;;5139010;27;20237;-65
2022/09/16 02:09:57;;;;;;;0.80;0.80;;;;;;;;;;5139432;27;20303;-65
2022/09/16 02:12:26;;;;;;;0.80;0.80;;;;;;;;;;5139984;27;20302;-65
2022/09/16 02:14:58;;;;;;;0.90;0.90;;;;;;;;;;5139055;27;20222;-65
2022/09/16 02:17:28;;;;;;;1.00;1.00;;;;;;;;;;5139162;27;20267;-65
2022/09/16 02:19:58;;;;;;;0.90;0.80;;;;;;;;;;5139627;27;20203;-65
2022/09/16 02:22:29;;;;;;;0.90;0.90;;;;;;;;;;5138877;27;20398;-65
2022/09/16 02:24:56;;;;;;;0.70;0.70;;;;;;;;;;5139114;27;20198;-65
2022/09/16 02:27:24;;;;;;;1.33;1.08;;;;;;;;;;5138718;27;20201;-65
2022/09/16 02:29:53;;;;;;;0.70;0.70;;;;;;;;;;5138852;27;20293;-65
2022/09/16 02:32:22;;;;;;;0.93;0.85;;;;;;;;;;5139471;27;20203;-65
2022/09/16 02:34:53;;;;;;;0.95;0.95;;;;;;;;;;5138983;27;20257;-65
2022/09/16 02:37:22;;;;;;;0.70;0.70;;;;;;;;;;5138885;27;20202;-65
2022/09/16 02:39:50;;;;;;;0.73;0.70;;;;;;;;;;5138750;27;20297;-65
2022/09/16 02:42:18;;;;;;;1.02;1.00;;;;;;;;;;5139344;27;20202;-65
2022/09/16 02:44:47;;;;;;;0.73;0.73;;;;;;;;;;5132250;27;20222;-65
2022/09/16 02:47:16;;;;;;;0.85;0.85;;;;;;;;;;5137858;27;20202;-65
2022/09/16 02:49:47;;;;;;;0.70;0.70;;;;;;;;;;5138902;27;20507;-65
2022/09/16 02:52:19;;;;;;;0.80;0.80;;;;;;;;;;5139096;27;20205;-65
2022/09/16 02:54:49;;;;;;;0.80;0.80;;;;;;;;;;5138448;27;20233;-65
2022/09/16 02:57:17;;;;;;;0.88;0.80;;;;;;;;;;5138166;27;20286;-65
2022/09/16 02:59:45;;;;;;;0.80;0.80;;;;;;;;;;5137887;27;20202;-65
2022/09/16 03:02:13;;;;;;;0.70;0.70;;;;;;;;;;5138389;27;20304;-65
2022/09/16 03:04:40;;;;;;;0.70;0.70;;;;;;;;;;5138016;27;20592;-65
2022/09/16 03:07:10;;;;;;;0.90;0.90;;;;;;;;;;5137721;27;20233;-65
2022/09/16 03:09:41;;;;;;;0.80;0.80;;;;;;;;;;5137929;27;20301;-65
2022/09/16 03:12:14;;;;;;;0.90;0.90;;;;;;;;;;5138276;27;20213;-65
2022/09/16 03:14:59;;;;;;;0.90;0.90;;;;;;;;;;5134388;27;20324;-65
2022/09/16 03:17:35;;;;;;;0.80;0.80;;;;;;;;;;5121147;27;20208;-65
2022/09/16 03:20:06;;;;;;;0.77;0.77;;;;;;;;;;5137960;27;20296;-65
2022/09/16 03:22:38;;;;;;;0.90;0.90;;;;;;;;;;5137984;27;20669;-65
2022/09/16 03:25:11;;;;;;;0.80;0.80;;;;;;;;;;5138475;27;20262;-65
2022/09/16 03:27:43;;;;;;;0.80;0.80;;;;;;;;;;5137921;27;20198;-65
2022/09/16 03:30:11;;;;;;;1.17;0.90;;;;;;;;;;5137708;27;20230;-65
2022/09/16 03:32:42;;;;;;;1.05;0.95;;;;;;;;;;5138301;28;20540;-65
2022/09/16 03:35:12;;;;;;;0.85;0.85;;;;;;;;;;5137989;28;20222;-65
2022/09/16 03:37:40;;;;;;;0.93;0.93;;;;;;;;;;5138293;28;20292;-65
2022/09/16 03:40:11;;;;;;;0.93;0.88;;;;;;;;;;5138053;28;20241;-65
2022/09/16 03:42:39;;;;;;;0.90;0.90;;;;;;;;;;5138520;28;20245;-65
2022/09/16 03:45:07;;;;;;;0.90;0.90;;;;;;;;;;5138149;28;20198;-65
2022/09/16 03:47:35;;;;;;;1.45;0.98;;;;;;;;;;5138266;28;20263;-65
2022/09/16 03:50:03;;;;;;;0.70;0.70;;;;;;;;;;5137861;28;20241;-65
2022/09/16 03:52:30;;;;;;;0.80;0.80;;;;;;;;;;5137771;28;20213;-65
2022/09/16 03:54:58;;;;;;;0.90;0.80;;;;;;;;;;5138098;28;20321;-65
2022/09/16 03:57:29;;;;;;;0.80;0.80;;;;;;;;;;5137958;28;20573;-65
2022/09/16 03:59:56;;;;;;;0.80;0.80;;;;;;;;;;5137890;28;20205;-65
2022/09/16 04:02:24;;;;;;;0.90;0.90;;;;;;;;;;5137767;28;20551;-65
2022/09/16 04:04:52;;;;;;;1.00;1.00;;;;;;;;;;5137856;28;20266;-65
2022/09/16 04:07:19;;;;;;;0.82;0.82;;;;;;;;;;5137716;28;20230;-65
2022/09/16 04:09:47;;;;;;;1.05;0.95;;;;;;;;;;5137783;27;20202;-65
2022/09/16 04:12:14;;;;;;;0.80;0.80;;;;;;;;;;5140015;27;20232;-65
2022/09/16 04:14:43;;;;;;;0.88;0.88;;;;;;;;;;5141615;27;20555;-65
2022/09/16 04:17:11;;;;;;;1.10;1.00;;;;;;;;;;5141061;27;20332;-65
2022/09/16 04:19:39;;;;;;;1.10;1.00;;;;;;;;;;5140782;27;20213;-65
2022/09/16 04:22:06;;;;;;;1.00;1.00;;;;;;;;;;5140724;27;20234;-65
2022/09/16 04:24:34;;;;;;;1.02;0.93;;;;;;;;;;5140893;27;20267;-65
2022/09/16 04:27:02;;;;;;;0.85;0.85;;;;;;;;;;5141166;27;20570;-65
2022/09/16 04:29:29;;;;;;;0.85;0.85;;;;;;;;;;5140818;27;20207;-65
2022/09/16 04:31:59;;;;;;;0.90;0.90;;;;;;;;;;5141027;27;20544;-65
2022/09/16 04:34:26;;;;;;;0.88;0.88;;;;;;;;;;5140250;27;20202;-65
2022/09/16 04:36:53;;;;;;;0.90;0.90;;;;;;;;;;5140086;27;20253;-65
2022/09/16 04:39:21;;;;;;;1.00;1.00;;;;;;;;;;5140433;27;20292;-65
2022/09/16 04:41:49;;;;;;;0.90;0.90;;;;;;;;;;5140396;27;20203;-65
2022/09/16 04:44:16;;;;;;;0.98;0.98;;;;;;;;;;5139920;27;20293;-65
2022/09/16 04:46:44;;;;;;;1.00;1.00;;;;;;;;;;5139585;27;20293;-65
2022/09/16 04:49:12;;;;;;;0.95;0.95;;;;;;;;;;5139564;27;20281;-65
2022/09/16 04:51:40;;;;;;;0.98;0.98;;;;;;;;;;5139548;27;20274;-65
2022/09/16 04:54:08;;;;;;;1.00;1.00;;;;;;;;;;5138581;27;20212;-65
2022/09/16 04:56:35;;;;;;;0.90;0.90;;;;;;;;;;5138028;27;20478;-65
2022/09/16 04:59:05;;;;;;;1.10;1.10;;;;;;;;;;5137346;27;20198;-65
2022/09/16 05:01:33;;;;;;;0.93;0.93;;;;;;;;;;5137584;27;20234;-65
2022/09/16 05:04:02;;;;;;;1.00;1.00;;;;;;;;;;5137136;27;20329;-65
2022/09/16 05:06:32;;;;;;;0.90;0.90;;;;;;;;;;5133168;27;20222;-65
2022/09/16 05:09:01;;;;;;;0.85;0.85;;;;;;;;;;5136981;27;20270;-65
2022/09/16 05:11:29;;;;;;;0.90;0.90;;;;;;;;;;5137146;27;20194;-65
2022/09/16 05:13:59;;;;;;;0.80;0.80;;;;;;;;;;5136223;27;20677;-65
2022/09/16 05:16:27;;;;;;;1.15;0.95;;;;;;;;;;5137071;27;20230;-65
2022/09/16 05:18:55;;;;;;;1.00;1.00;;;;;;;;;;5137240;27;20809;-65
2022/09/16 05:21:23;;;;;;;1.00;1.00;;;;;;;;;;5137288;27;20615;-65
2022/09/16 05:23:53;;;;;;;0.90;0.90;;;;;;;;;;5137604;27;20679;-65
2022/09/16 05:26:21;;;;;;;0.88;0.88;;;;;;;;;;5136674;27;20206;-65
2022/09/16 05:28:49;;;;;;;1.00;1.00;;;;;;;;;;5136882;27;20253;-65
2022/09/16 05:31:17;;;;;;;1.00;1.00;;;;;;;;;;5136689;27;20213;-65
2022/09/16 05:33:46;;;;;;;1.00;1.00;;;;;;;;;;5137341;27;20732;-66
2022/09/16 05:36:14;;;;;;;1.13;1.05;;;;;;;;;;5137213;27;20222;-66
2022/09/16 05:38:42;;;;;;;1.10;1.00;;;;;;;;;;5137620;27;20245;-65
2022/09/16 05:41:11;;;;;;;1.20;1.10;;;;;;;;;;5137069;27;20588;-65
2022/09/16 05:43:39;;;;;;;1.20;1.10;;;;;;;;;;5137790;27;20198;-65
2022/09/16 05:46:07;;;;;;;1.52;0.90;;;;;;;;;;5137187;27;20234;-65
2022/09/16 05:48:35;;;;;;;1.13;1.10;;;;;;;;;;5136743;27;20213;-65
2022/09/16 05:51:03;;;;;;;1.02;0.93;;;;;;;;;;5135742;27;20610;-65
2022/09/16 05:53:31;;;;;;;0.93;0.93;;;;;;;;;;5135268;27;20203;-65
2022/09/16 05:56:00;;;;;;;1.20;1.10;;;;;;;;;;5136955;27;20257;-65
2022/09/16 05:58:30;;;;;;;1.20;1.10;;;;;;;;;;5136357;27;20209;-65
2022/09/16 06:00:59;;;;;;;1.20;1.10;;;;;;;;;;5137313;27;20309;-65
2022/09/16 06:03:27;;;;;;;1.20;1.10;;;;;;;;;;5136683;27;20198;-65
2022/09/16 06:05:59;;;;;;;1.13;1.02;;;;;;;;;;5137002;27;20237;-65
2022/09/16 06:08:27;;;;;;;1.65;0.90;;;;;;;;;;5136644;27;20293;-65
2022/09/16 06:10:54;;;;;;;0.93;0.93;;;;;;;;;;5137092;27;20242;-65
2022/09/16 06:13:22;;;;;;;1.05;0.90;;;;;;;;;;5136897;27;20306;-65
2022/09/16 06:15:53;;;;;;;0.80;0.80;;;;;;;;;;5137390;27;20648;-65
2022/09/16 06:18:20;;;;;;;1.02;0.98;;;;;;;;;;5138197;27;20675;-65
2022/09/16 06:20:48;;;;;;;1.13;1.10;;;;;;;;;;5137614;27;20552;-65
2022/09/16 06:23:16;;;;;;;1.00;0.90;;;;;;;;;;5137736;27;20209;-65
2022/09/16 06:25:43;;;;;;;0.93;0.93;;;;;;;;;;5136744;27;20287;-65
2022/09/16 06:28:11;;;;;;;1.38;1.00;;;;;;;;;;5136603;27;20199;-65
2022/09/16 06:30:39;;;;;;;0.95;0.95;;;;;;;;;;5136376;27;20198;-65
2022/09/16 06:33:10;;;;;;;1.17;1.08;;;;;;;;;;5136115;27;20621;-65
2022/09/16 06:35:37;;;;;;;1.42;0.90;;;;;;;;;;5136786;27;20202;-65
2022/09/16 06:38:05;;;;;;;1.00;1.00;;;;;;;;;;5137631;27;20259;-65
2022/09/16 06:40:32;;;;;;;1.42;1.00;;;;;;;;;;5137244;27;20655;-65
2022/09/16 06:43:00;;;;;;;0.82;0.82;;;;;;;;;;5137447;27;20259;-65
2022/09/16 06:45:28;;;;;;;1.80;1.00;;;;;;;;;;5137474;27;20298;-65
2022/09/16 06:48:00;;;;;;;1.00;0.90;;;;;;;;;;5136966;27;20206;-65
2022/09/16 06:50:28;;;;;;;0.90;0.90;;;;;;;;;;5136434;27;20202;-65
2022/09/16 06:52:56;;;;;;;1.58;1.00;;;;;;;;;;5135728;27;20234;-65
2022/09/16 06:55:23;;;;;;;1.00;1.00;;;;;;;;;;5136235;27;20194;-65
2022/09/16 06:57:51;;;;;;;1.25;1.00;;;;;;;;;;5136276;27;20314;-65
2022/09/16 07:00:18;;;;;;;1.23;1.00;;;;;;;;;;5136405;27;20212;-65
2022/09/16 07:02:46;;;;;;;1.45;1.10;;;;;;;;;;5136331;27;20309;-65
2022/09/16 07:05:13;;;;;;;0.90;0.90;;;;;;;;;;5136788;27;20553;-65
2022/09/16 07:07:42;;;;;;;0.85;0.85;;;;;;;;;;5136032;27;20559;-66
2022/09/16 07:10:10;;;;;;;1.00;1.00;;;;;;;;;;5135021;27;20225;-66
2022/09/16 07:12:38;;;;;;;0.80;0.80;;;;;;;;;;5135578;27;20234;-66
2022/09/16 07:15:05;;;;;;;1.05;0.85;;;;;;;;;;5135880;27;20559;-66
2022/09/16 07:17:33;;;;;;;0.93;0.93;;;;;;;;;;5135906;27;20261;-66
2022/09/16 07:20:01;;;;;;;1.35;1.05;;;;;;;;;;5135399;27;20334;-66
2022/09/16 07:22:31;;;;;;;1.20;1.10;;;;;;;;;;5135252;27;20234;-66
2022/09/16 07:25:00;;;;;;;0.98;0.98;;;;;;;;;;5135988;27;20202;-66
2022/09/16 07:27:28;;;;;;;1.45;1.10;;;;;;;;;;5135940;27;20280;-66
2022/09/16 07:29:55;;;;;;;0.80;0.80;;;;;;;;;;5134664;27;20797;-66
2022/09/16 07:32:23;;;;;;;1.00;1.00;;;;;;;;;;5134956;27;20320;-66
2022/09/16 07:34:50;;;;;;;0.98;0.98;;;;;;;;;;5135476;28;20764;-66
2022/09/16 07:37:18;;;;;;;1.23;1.00;;;;;;;;;;5134604;28;20307;-66
2022/09/16 07:39:46;;;;;;;1.67;1.13;;;;;;;;;;5135129;28;20205;-66
2022/09/16 07:42:15;;;;;;;0.95;0.95;;;;;;;;;;5134471;28;20241;-66
2022/09/16 07:44:43;;;;;;;0.90;0.90;;;;;;;;;;5134365;27;20256;-66
2022/09/16 07:47:11;;;;;;;0.93;0.90;;;;;;;;;;5138386;27;20566;-66
2022/09/16 07:49:39;;;;;;;0.93;0.93;;;;;;;;;;5137990;27;20277;-66
2022/09/16 07:52:06;;;;;;;0.80;0.80;;;;;;;;;;5139297;27;20229;-66
2022/09/16 07:54:34;;;;;;;0.80;0.80;;;;;;;;;;5138998;27;20233;-66
2022/09/16 07:57:01;;;;;;;1.05;0.90;;;;;;;;;;5138581;27;20232;-66
2022/09/16 07:59:30;;;;;;;1.08;1.08;;;;;;;;;;5138526;27;20202;-66
2022/09/16 08:01:57;;;;;;;1.17;1.00;;;;;;;;;;5139821;27;20270;-66
2022/09/16 08:04:25;;;;;;;0.80;0.80;;;;;;;;;;5139623;27;20202;-66
2022/09/16 08:06:52;;;;;;;1.05;1.00;;;;;;;;;;5138382;27;20289;-66
2022/09/16 08:09:21;;;;;;;1.10;1.00;;;;;;;;;;5138859;27;20616;-66
2022/09/16 08:11:49;;;;;;;0.93;0.93;;;;;;;;;;5139047;27;20210;-66
2022/09/16 08:14:16;;;;;;;1.00;1.00;;;;;;;;;;5139120;27;20202;-66
2022/09/16 08:16:45;;;;;;;1.05;1.00;;;;;;;;;;5138373;27;20257;-66
2022/09/16 08:19:13;;;;;;;1.20;1.10;;;;;;;;;;5138936;27;20248;-66
2022/09/16 08:21:40;;;;;;;1.13;1.00;;;;;;;;;;5139064;27;20310;-66
2022/09/16 08:24:08;;;;;;;2.53;1.00;;;;;;;;;;5140301;27;20195;-66
2022/09/16 08:26:35;;;;;;;1.15;1.05;;;;;;;;;;5138934;27;20531;-66
2022/09/16 08:29:03;;;;;;;1.38;1.00;;;;;;;;;;5138227;27;20422;-66
2022/09/16 08:31:31;;;;;;;1.20;1.10;;;;;;;;;;5138693;27;20579;-66
2022/09/16 08:34:00;;;;;;;0.95;0.95;;;;;;;;;;5139224;27;20658;-66
2022/09/16 08:36:28;;;;;;;1.10;1.00;;;;;;;;;;5138967;27;20322;-66
2022/09/16 08:38:56;;;;;;;1.10;1.10;;;;;;;;;;5139346;27;20491;-66
2022/09/16 08:41:40;;;;;;;1.35;1.10;;;;;;;;;;5138428;27;20952;-66
2022/09/16 08:44:13;;;;;;;1.65;1.10;;;;;;;;;;5138401;27;20281;-66
2022/09/16 08:46:45;;;;;;;1.00;1.00;;;;;;;;;;5138347;27;20256;-66
2022/09/16 08:49:17;;;;;;;1.38;1.10;;;;;;;;;;5138506;27;20226;-66
2022/09/16 08:51:46;;;;;;;1.02;1.00;;;;;;;;;;5138672;27;20294;-66
2022/09/16 08:54:16;;;;;;;1.15;1.02;;;;;;;;;;5138960;27;20248;-66
2022/09/16 08:56:44;;;;;;;1.20;1.10;;;;;;;;;;5137905;27;20287;-65
2022/09/16 08:59:14;;;;;;;1.50;1.02;;;;;;;;;;5139047;27;20283;-66
2022/09/16 09:01:43;;;;;;;1.38;1.20;;;;;;;;;;5138707;27;20696;-66
2022/09/16 09:04:12;;;;;;;1.30;1.20;;;;;;;;;;5139344;27;20210;-66
2022/09/16 09:06:50;;;;;;;1.77;1.00;;;;;;;;;;5138681;27;20333;-66
2022/09/16 09:09:24;;;;;;;1.50;1.20;;;;;;;;;;5138634;27;20622;-66
2022/09/16 09:11:57;;;;;;;1.15;1.10;;;;;;;;;;5138054;27;20613;-66
2022/09/16 09:14:31;;;;;;;1.58;1.10;;;;;;;;;;5137951;27;20229;-66
2022/09/16 09:17:03;;;;;;;1.27;1.20;;;;;;;;;;5137616;27;20232;-66
2022/09/16 09:19:36;;;;;;;1.00;1.00;;;;;;;;;;5136819;27;20237;-66
2022/09/16 09:22:09;;;;;;;1.33;1.00;;;;;;;;;;5136955;27;20310;-66
2022/09/16 09:24:41;;;;;;;0.90;0.90;;;;;;;;;;5138052;27;20310;-66
2022/09/16 09:27:14;;;;;;;1.10;1.00;;;;;;;;;;5138834;27;20190;-66
2022/09/16 09:29:51;;;;;;;1.30;1.20;;;;;;;;;;5139477;27;20637;-66
2022/09/16 09:32:22;;;;;;;1.27;1.17;;;;;;;;;;5137954;27;20227;-66
2022/09/16 09:34:57;;;;;;;1.20;1.10;;;;;;;;;;5137249;27;20206;-65
2022/09/16 09:37:32;;;;;;;1.23;1.08;;;;;;;;;;5137465;27;20622;-66
2022/09/16 09:40:05;;;;;;;1.00;0.90;;;;;;;;;;5137293;27;20277;-66
2022/09/16 09:42:36;;;;;;;1.30;1.20;;;;;;;;;;5136617;27;20202;-65
2022/09/16 09:45:05;;;;;;;1.50;1.00;;;;;;;;;;5136478;27;20298;-65
2022/09/16 09:47:34;;;;;;;1.08;1.00;;;;;;;;;;5135935;27;20246;-65
2022/09/16 09:50:04;;;;;;;1.20;1.10;;;;;;;;;;5137230;27;20214;-65
2022/09/16 09:52:38;;;;;;;1.17;1.02;;;;;;;;;;5137544;27;20229;-66
2022/09/16 09:55:14;;;;;;;1.30;1.20;;;;;;;;;;5136790;27;20761;-66
2022/09/16 09:57:43;;;;;;;1.02;0.93;;;;;;;;;;5135889;27;20214;-66
2022/09/16 10:00:13;;;;;;;1.08;1.00;;;;;;;;;;5135817;27;20303;-66
2022/09/16 10:02:42;;;;;;;1.05;1.05;;;;;;;;;;5136166;27;20278;-66
2022/09/16 10:05:16;;;;;;;1.80;1.20;;;;;;;;;;5135954;27;20210;-65
2022/09/16 10:07:45;;;;;;;0.90;0.90;;;;;;;;;;5135936;27;20198;-65
2022/09/16 10:10:15;;;;;;;1.05;1.05;;;;;;;;;;5135105;27;20270;-65
2022/09/16 10:12:42;;;;;;;1.10;1.00;;;;;;;;;;5136086;27;20303;-65
2022/09/16 10:15:20;;;;;;;1.13;1.02;;;;;;;;;;5135836;27;20281;-65
2022/09/16 10:17:49;;;;;;;1.02;1.00;;;;;;;;;;5135379;27;20261;-65
2022/09/16 10:20:23;;;;;;;1.20;1.10;;;;;;;;;;5135842;27;20613;-65
2022/09/16 10:22:58;;;;;;;1.10;1.00;;;;;;;;;;5135892;27;20587;-66
2022/09/16 10:25:26;;;;;;;0.93;0.90;;;;;;;;;;5134355;27;20237;-65
2022/09/16 10:27:59;;;;;;;1.23;1.13;;;;;;;;;;5134741;27;20234;-66
2022/09/16 10:30:27;;;;;;;1.27;1.10;;;;;;;;;;5134053;27;20202;-66
2022/09/16 10:32:56;;;;;;;0.90;0.90;;;;;;;;;;5134014;27;20261;-66
2022/09/16 10:35:25;;;;;;;1.35;1.20;;;;;;;;;;5133910;27;20263;-66
2022/09/16 10:37:54;;;;;;;1.30;1.20;;;;;;;;;;5134295;27;20222;-66
2022/09/16 10:40:23;;;;;;;1.33;1.10;;;;;;;;;;5134324;27;20304;-66
2022/09/16 10:42:52;;;;;;;1.00;1.00;;;;;;;;;;5134656;27;20211;-66
2022/09/16 10:45:27;;;;;;;1.20;1.10;;;;;;;;;;5134217;27;20205;-66
2022/09/16 10:47:56;;;;;;;1.13;1.08;;;;;;;;;;5134029;27;20197;-66
2022/09/16 10:50:23;;;;;;;1.42;1.13;;;;;;;;;;5134495;27;20300;-66
2022/09/16 10:52:52;;;;;;;1.20;1.15;;;;;;;;;;5134587;27;20198;-66
2022/09/16 10:55:26;;;;;;;1.17;1.10;;;;;;;;;;5133088;27;20202;-66
2022/09/16 10:57:54;;;;;;;1.70;1.20;;;;;;;;;;5133962;27;20226;-66
2022/09/16 11:00:22;;;;;;;1.00;1.00;;;;;;;;;;5134304;27;20285;-66
2022/09/16 11:03:08;;;;;;;1.00;0.90;;;;;;;;;;5133971;27;20316;-66
2022/09/16 11:05:39;;;;;;;1.10;1.10;;;;;;;;;;5134491;27;20234;-66
2022/09/16 11:08:27;;;;;;;1.00;1.00;;;;;;;;;;5133629;27;20202;-65
2022/09/16 11:10:59;;;;;;;1.08;1.00;;;;;;;;;;5133487;27;20294;-66
2022/09/16 11:13:41;;;;;;;1.02;1.00;;;;;;;;;;5133966;27;20594;-66
2022/09/16 11:16:20;;;;;;;1.00;1.00;;;;;;;;;;5133500;27;20202;-66
2022/09/16 11:18:54;;;;;;;1.10;1.00;;;;;;;;;;5132826;27;20232;-66
2022/09/16 11:21:30;;;;;;;1.13;0.90;;;;;;;;;;5132703;27;20198;-65
2022/09/16 11:24:06;;;;;;;1.20;1.10;;;;;;;;;;5133589;27;20213;-65
2022/09/16 11:26:38;;;;;;;0.90;0.90;;;;;;;;;;5133744;27;20244;-65
2022/09/16 11:29:20;;;;;;;0.95;0.90;;;;;;;;;;5117897;27;20708;-66
2022/09/16 11:31:53;;;;;;;1.02;1.00;;;;;;;;;;5133879;27;20314;-66
2022/09/16 11:34:26;;;;;;;0.82;0.82;;;;;;;;;;5133974;27;20234;-65
2022/09/16 11:36:56;;;;;;;0.90;0.90;;;;;;;;;;5133317;28;20306;-65
2022/09/16 11:39:34;;;;;;;1.10;1.00;;;;;;;;;;5132722;28;20318;-66
2022/09/16 11:42:06;;;;;;;0.80;0.80;;;;;;;;;;5132887;28;20298;-66
2022/09/16 11:44:42;;;;;;;0.90;0.90;;;;;;;;;;5132631;28;20238;-65
2022/09/16 11:47:14;;;;;;;1.00;0.85;;;;;;;;;;5133153;28;20208;-65
2022/09/16 11:49:47;;;;;;;1.10;1.00;;;;;;;;;;5132334;28;20206;-65
2022/09/16 11:52:21;;;;;;;0.95;0.93;;;;;;;;;;5133889;28;20234;-65
2022/09/16 11:55:00;;;;;;;0.85;0.85;;;;;;;;;;5131919;28;20202;-65
2022/09/16 11:57:30;;;;;;;0.80;0.80;;;;;;;;;;5132911;28;20739;-65
2022/09/16 11:59:59;;;;;;;0.85;0.80;;;;;;;;;;5133281;28;20194;-66
2022/09/16 12:02:30;;;;;;;0.90;0.90;;;;;;;;;;5133501;28;20306;-65
2022/09/16 12:05:01;;;;;;;0.75;0.75;;;;;;;;;;5134861;28;20296;-65
2022/09/16 12:07:30;;;;;;;0.77;0.77;;;;;;;;;;5134306;28;20571;-65
2022/09/16 12:10:00;;;;;;;0.80;0.80;;;;;;;;;;5133351;28;20345;-65
2022/09/16 12:12:33;;;;;;;1.00;1.00;;;;;;;;;;5134214;28;20685;-65
2022/09/16 12:15:02;;;;;;;0.70;0.70;;;;;;;;;;5134318;28;20644;-65
2022/09/16 12:17:32;;;;;;;0.90;0.90;;;;;;;;;;5133555;28;20234;-65
2022/09/16 12:20:01;;;;;;;0.90;0.90;;;;;;;;;;5133993;28;20202;-65
2022/09/16 12:22:32;;;;;;;0.90;0.90;;;;;;;;;;5132587;28;20251;-65
2022/09/16 12:25:03;;;;;;;0.90;0.90;;;;;;;;;;5132956;28;20697;-65
2022/09/16 12:27:39;;;;;;;0.80;0.80;;;;;;;;;;5132713;28;20237;-65
2022/09/16 12:30:12;;;;;;;1.35;0.80;;;;;;;;;;5133649;28;20304;-65
2022/09/16 12:32:45;;;;;;;0.80;0.80;;;;;;;;;;5135148;27;20237;-65
2022/09/16 12:35:15;;;;;;;0.93;0.93;;;;;;;;;;5135824;27;20213;-65
2022/09/16 12:37:46;;;;;;;0.75;0.75;;;;;;;;;;5136833;27;20222;-65
2022/09/16 12:40:16;;;;;;;0.93;0.85;;;;;;;;;;5136391;27;20264;-65
2022/09/16 12:42:58;;;;;;;0.90;0.90;;;;;;;;;;5137012;27;20202;-65
2022/09/16 12:45:39;;;;;;;0.80;0.80;;;;;;;;;;5137384;27;20302;-65
2022/09/16 12:48:15;;;;;;;1.30;0.80;;;;;;;;;;5136593;27;20190;-65
2022/09/16 12:50:53;;;;;;;0.80;0.80;;;;;;;;;;5136231;27;20606;-66
2022/09/16 12:53:39;;;;;;;0.70;0.70;;;;;;;;;;5135643;27;20233;-65
2022/09/16 12:56:10;;;;;;;1.25;0.70;;;;;;;;;;5137402;27;20278;-65
2022/09/16 12:58:49;;;;;;;0.60;0.60;;;;;;;;;;5137153;27;20240;-65
2022/09/16 13:01:21;;;;;;;0.90;0.80;;;;;;;;;;5137106;27;20290;-65
2022/09/16 13:03:50;;;;;;;1.08;0.80;;;;;;;;;;5137289;27;20202;-65
2022/09/16 13:06:25;;;;;;;0.90;0.80;;;;;;;;;;5136767;27;20319;-65
2022/09/16 13:08:53;;;;;;;0.70;0.70;;;;;;;;;;5136644;27;20228;-66
2022/09/16 13:11:22;;;;;;;1.05;0.95;;;;;;;;;;5136271;27;20202;-66
2022/09/16 13:13:52;;;;;;;1.00;0.77;;;;;;;;;;5136607;27;20694;-65
2022/09/16 13:16:31;;;;;;;0.90;0.90;;;;;;;;;;5136271;27;20201;-65
2022/09/16 13:19:33;;;;;;;0.68;0.65;;;;;;;;;;5136185;27;20253;-65
2022/09/16 13:22:03;;;;;;;0.77;0.77;;;;;;;;;;5033874;28;20197;-65
2022/09/16 13:24:35;;;;;;;0.80;0.80;;;;;;;;;;5033121;28;20520;-66
2022/09/16 13:27:03;;;;;;;1.15;0.90;;;;;;;;;;5080955;27;20301;-66
2022/09/16 13:29:43;;;;;;;0.70;0.70;;;;;;;;;;5137407;27;20206;-65
2022/09/16 13:32:26;;;;;;;0.80;0.80;;;;;;;;;;5116269;28;20504;-65
2022/09/16 13:35:03;;;;;;;0.95;0.90;;;;;;;;;;5105353;28;20214;-66
2022/09/16 13:37:31;;;;;;;0.85;0.80;;;;;;;;;;5116046;28;20609;-65
2022/09/16 13:40:09;;;;;;;0.60;0.60;;;;;;;;;;5115232;28;20230;-65
2022/09/16 13:42:36;;;;;;;0.70;0.70;;;;;;;;;;5116962;28;20210;-65
2022/09/16 13:45:26;;;;;;;0.80;0.80;;;;;;;;;;5119649;27;20250;-65
2022/09/16 13:47:53;;;;;;;1.13;0.77;;;;;;;;;;5136498;27;20285;-65
2022/09/16 13:50:25;;;;;;;0.75;0.75;;;;;;;;;;5136054;27;20255;-65
2022/09/16 13:52:52;;;;;;;0.70;0.70;;;;;;;;;;5136735;27;20201;-65
2022/09/16 13:55:21;;;;;;;0.80;0.80;;;;;;;;;;5136744;27;20199;-65
2022/09/16 13:58:00;;;;;;;0.85;0.80;;;;;;;;;;5136807;27;20313;-65
2022/09/16 14:00:32;;;;;;;0.98;0.85;;;;;;;;;;5136320;27;20238;-65
2022/09/16 14:03:15;;;;;;;0.93;0.90;;;;;;;;;;5136791;27;20198;-65
2022/09/16 14:05:49;;;;;;;1.85;0.85;;;;;;;;;;5135934;27;20354;-65
2022/09/16 14:08:20;;;;;;;0.80;0.80;;;;;;;;;;5136372;27;20205;-65
2022/09/16 14:10:52;;;;;;;0.98;0.80;;;;;;;;;;5136157;27;20230;-65
2022/09/16 14:13:21;;;;;;;1.02;0.93;;;;;;;;;;5135822;27;20225;-65
2022/09/16 14:15:51;;;;;;;0.70;0.63;;;;;;;;;;5135676;27;20284;-65
2022/09/16 14:18:20;;;;;;;0.68;0.68;;;;;;;;;;5135543;27;20258;-65
2022/09/16 14:20:57;;;;;;;0.95;0.80;;;;;;;;;;5134083;27;20727;-65
2022/09/16 14:23:25;;;;;;;0.82;0.68;;;;;;;;;;5134213;27;20603;-65
2022/09/16 14:25:52;;;;;;;0.57;0.57;;;;;;;;;;5135169;27;20202;-65
2022/09/16 14:28:20;;;;;;;0.68;0.68;;;;;;;;;;5135762;27;20300;-65
2022/09/16 14:30:51;;;;;;;0.70;0.70;;;;;;;;;;5135910;27;20198;-65
2022/09/16 14:33:21;;;;;;;0.82;0.75;;;;;;;;;;5135463;27;20238;-65
2022/09/16 14:35:49;;;;;;;0.70;0.70;;;;;;;;;;5135220;27;20237;-65
2022/09/16 14:38:18;;;;;;;1.95;0.73;;;;;;;;;;5135862;27;20633;-65
2022/09/16 14:40:46;;;;;;;0.73;0.70;;;;;;;;;;5135282;27;20281;-65
2022/09/16 14:43:16;;;;;;;0.80;0.77;;;;;;;;;;5135353;27;20229;-65
2022/09/16 14:45:46;;;;;;;1.45;0.65;;;;;;;;;;5135620;27;20233;-65
2022/09/16 14:48:16;;;;;;;0.65;0.60;;;;;;;;;;5135137;27;20203;-65
2022/09/16 14:50:45;;;;;;;2.10;0.80;;;;;;;;;;5133947;27;20293;-65
2022/09/16 14:53:24;;;;;;;0.82;0.50;;;;;;;;;;5134552;27;20202;-65
2022/09/16 14:55:52;;;;;;;0.90;0.60;;;;;;;;;;5133777;27;20206;-65
2022/09/16 14:58:20;;;;;;;0.70;0.60;;;;;;;;;;5134620;27;20575;-66
2022/09/16 15:00:48;;;;;;;0.82;0.57;;;;;;;;;;5134976;27;20227;-66
2022/09/16 15:03:21;;;;;;;0.60;0.60;;;;;;;;;;5135018;27;20213;-66